createdAt,value
2022-10-13T00:03:03.916Z,985.39
2022-10-13T00:09:03.911Z,985.30
2022-10-13T00:15:03.901Z,985.26
2022-10-13T00:21:03.914Z,985.28
2022-10-13T00:27:03.979Z,985.36
2022-10-13T00:33:03.973Z,985.20
2022-10-13T00:39:03.919Z,984.98
2022-10-13T00:45:03.917Z,985.07
2022-10-13T00:51:03.915Z,984.97
2022-10-13T00:57:03.919Z,984.91
2022-10-13T01:03:03.916Z,984.85
2022-10-13T01:09:03.947Z,985.03
2022-10-13T01:15:03.909Z,984.92
2022-10-13T01:21:04.396Z,984.88
2022-10-13T01:27:03.943Z,984.79
2022-10-13T01:33:03.917Z,984.74
2022-10-13T01:39:03.935Z,984.77
2022-10-13T01:45:03.952Z,984.80
2022-10-13T01:51:03.920Z,984.78
2022-10-13T01:57:03.959Z,984.68
2022-10-13T02:03:03.928Z,984.68
2022-10-13T02:09:03.917Z,984.62
2022-10-13T02:15:03.914Z,984.56
2022-10-13T02:21:03.915Z,984.55
2022-10-13T02:27:03.978Z,984.47
2022-10-13T02:33:03.936Z,984.40
2022-10-13T02:39:03.916Z,984.42
2022-10-13T02:45:03.941Z,984.42
2022-10-13T02:51:03.906Z,984.41
2022-10-13T02:57:03.936Z,984.51
2022-10-13T03:03:03.925Z,984.41
2022-10-13T03:09:03.952Z,984.47
2022-10-13T03:15:03.924Z,984.47
2022-10-13T03:21:03.941Z,984.39
2022-10-13T03:27:03.976Z,984.38
2022-10-13T03:33:03.926Z,984.28
2022-10-13T03:39:03.907Z,984.31
2022-10-13T03:45:03.922Z,984.47
2022-10-13T03:51:03.902Z,984.40
2022-10-13T03:57:03.918Z,984.30
2022-10-13T04:03:03.913Z,984.26
2022-10-13T04:21:03.958Z,984.43
2022-10-13T04:27:03.935Z,984.34
2022-10-13T04:33:03.931Z,984.37
2022-10-13T04:39:03.918Z,984.39
2022-10-13T04:45:03.938Z,984.38
2022-10-13T04:51:03.956Z,984.33
2022-10-13T04:57:03.919Z,984.31
2022-10-13T05:03:03.923Z,984.25
2022-10-13T05:09:03.926Z,984.26
2022-10-13T05:15:03.927Z,984.39
2022-10-13T05:21:03.928Z,984.39
2022-10-13T05:27:03.920Z,984.46
2022-10-13T05:33:03.928Z,984.34
2022-10-13T05:39:03.909Z,984.38
2022-10-13T05:45:03.925Z,984.51
2022-10-13T05:51:03.915Z,984.48
2022-10-13T05:57:03.919Z,984.49
2022-10-13T06:03:03.926Z,984.49
2022-10-13T06:09:03.920Z,984.63
2022-10-13T06:15:03.956Z,984.64
2022-10-13T06:21:03.946Z,984.63
2022-10-13T06:27:03.915Z,984.63
2022-10-13T06:33:03.941Z,984.66
2022-10-13T06:39:03.934Z,984.63
2022-10-13T06:45:03.907Z,984.70
2022-10-13T06:51:03.922Z,984.59
2022-10-13T06:57:03.946Z,984.59
2022-10-13T07:03:03.932Z,984.54
2022-10-13T07:09:03.951Z,984.49
2022-10-13T07:15:03.912Z,984.46
2022-10-13T07:21:03.933Z,984.45
2022-10-13T07:27:06.851Z,984.40
2022-10-13T07:33:03.921Z,984.46
2022-10-13T07:39:03.913Z,984.38
2022-10-13T07:45:03.926Z,984.25
2022-10-13T07:51:03.960Z,984.25
2022-10-13T07:57:03.944Z,984.09
2022-10-13T08:03:03.930Z,984.12
2022-10-13T08:09:03.943Z,984.10
2022-10-13T08:15:06.259Z,984.10
2022-10-13T08:21:33.065Z,984.04
2022-10-13T08:27:03.997Z,984.03
2022-10-13T08:33:03.951Z,984.09
2022-10-13T08:39:03.922Z,984.06
2022-10-13T08:45:28.826Z,984.09
2022-10-13T08:51:03.915Z,984.04
2022-10-13T08:57:03.946Z,984.02
2022-10-13T09:03:03.924Z,983.99
2022-10-13T09:09:03.954Z,983.96
2022-10-13T09:15:03.919Z,983.99
2022-10-13T09:21:03.965Z,983.96
2022-10-13T09:27:03.955Z,984.24
2022-10-13T09:33:03.969Z,984.12
2022-10-13T09:39:03.978Z,984.14
2022-10-13T09:45:03.933Z,983.96
2022-10-13T09:51:03.957Z,983.93
2022-10-13T09:57:03.943Z,984.04
2022-10-13T10:03:03.927Z,984.06
2022-10-13T10:09:04.806Z,983.90
2022-10-13T10:15:03.956Z,983.87
2022-10-13T10:21:03.929Z,983.80
2022-10-13T10:27:03.999Z,983.74
2022-10-13T10:33:03.944Z,983.80
2022-10-13T10:39:03.969Z,983.64
2022-10-13T10:45:03.930Z,983.63
2022-10-13T10:51:03.943Z,983.52
2022-10-13T10:57:03.969Z,983.49
2022-10-13T11:03:03.973Z,983.34
2022-10-13T11:09:03.957Z,983.38
2022-10-13T11:15:03.955Z,983.33
2022-10-13T11:21:03.935Z,983.19
2022-10-13T11:27:03.949Z,983.17
2022-10-13T11:33:03.961Z,983.16
2022-10-13T11:39:03.949Z,983.12
2022-10-13T11:45:03.943Z,983.01
2022-10-13T11:51:03.948Z,983.02
2022-10-13T11:57:03.961Z,982.87
2022-10-13T12:03:03.987Z,982.82
2022-10-13T12:09:03.949Z,982.85
2022-10-13T12:15:06.818Z,982.71
2022-10-13T12:21:03.955Z,982.76
2022-10-13T12:27:03.993Z,982.65
2022-10-13T12:33:03.975Z,982.52
2022-10-13T12:39:03.962Z,982.51
2022-10-13T12:45:03.970Z,982.51
2022-10-13T12:51:03.968Z,982.46
2022-10-13T12:57:03.981Z,982.53
2022-10-13T13:03:04.047Z,982.52
2022-10-13T13:09:03.997Z,982.57
2022-10-13T13:15:03.974Z,982.37
2022-10-13T13:21:03.982Z,982.42
2022-10-13T13:27:03.994Z,982.38
2022-10-13T13:33:04.058Z,982.28
2022-10-13T13:39:04.031Z,982.28
2022-10-13T13:45:03.990Z,982.16
2022-10-13T13:51:04.008Z,982.16
2022-10-13T13:57:04.034Z,982.10
2022-10-13T14:03:03.989Z,982.06
2022-10-13T14:09:04.048Z,982.11
2022-10-13T14:15:03.995Z,982.16
2022-10-13T14:21:04.021Z,982.16
2022-10-13T14:27:04.013Z,982.12
2022-10-13T14:33:04.009Z,982.09
2022-10-13T14:39:03.991Z,981.98
2022-10-13T14:45:04.011Z,982.08
2022-10-13T14:51:04.053Z,982.00
2022-10-13T14:57:04.028Z,982.00
2022-10-13T15:03:04.037Z,981.98
2022-10-13T15:09:04.004Z,982.00
2022-10-13T15:15:04.019Z,981.84
2022-10-13T15:21:04.016Z,981.87
2022-10-13T15:27:04.043Z,981.89
2022-10-13T15:33:04.012Z,981.98
2022-10-13T15:39:04.005Z,982.00
2022-10-13T15:45:09.824Z,981.95
2022-10-13T15:51:04.033Z,981.98
2022-10-13T16:03:04.518Z,981.84
2022-10-13T16:15:04.966Z,981.92
2022-10-13T16:27:05.441Z,981.83
2022-10-13T16:39:05.889Z,981.72
2022-10-13T16:51:06.311Z,981.84
2022-10-13T17:03:06.741Z,981.84
2022-10-13T17:15:07.263Z,982.07
2022-10-13T17:27:07.707Z,981.87
2022-10-13T17:39:08.147Z,982.02
2022-10-13T17:51:08.661Z,981.94
2022-10-13T18:03:09.049Z,982.04
2022-10-13T18:15:09.524Z,982.01
2022-10-13T18:27:09.953Z,981.88
2022-10-13T18:39:10.420Z,981.94
2022-10-13T18:51:10.879Z,981.89
2022-10-13T19:03:11.342Z,982.01
2022-10-13T19:15:11.770Z,981.94
2022-10-13T19:27:12.227Z,981.82
2022-10-13T19:39:12.685Z,981.83
2022-10-13T19:51:13.158Z,981.81
2022-10-13T20:03:13.609Z,981.76
2022-10-13T20:15:14.017Z,981.74
2022-10-13T20:27:14.477Z,981.71
2022-10-13T20:39:14.959Z,981.63
2022-10-13T20:51:15.376Z,981.69
2022-10-13T21:03:15.840Z,981.60
2022-10-13T21:15:16.311Z,981.55
2022-10-13T21:27:16.770Z,981.47
2022-10-13T21:39:17.213Z,981.41
2022-10-13T21:51:17.687Z,981.39
2022-10-13T22:03:18.132Z,981.41
2022-10-13T22:15:18.575Z,981.38
2022-10-13T22:27:19.313Z,981.31
2022-10-13T22:39:19.478Z,981.20
2022-10-13T22:51:19.946Z,981.03
2022-10-13T23:03:20.454Z,980.97
2022-10-13T23:15:20.826Z,980.93
2022-10-13T23:27:21.560Z,980.78
2022-10-13T23:39:21.716Z,980.79
2022-10-13T23:51:22.209Z,980.71
